Time;durP1;ratioP1;P1;durP2;ratioP2;P2;SDS_P1;SDS_P2;PMS_P1;PMS_P2;Temp;Humidity;BMP_temperature;BMP_pressure;BME280_temperature;BME280_humidity;BME280_pressure;Samples;Min_cycle;Max_cycle;Signal;HPM_P1;HPM_P2
2021/03/01 00:00:13;;;;;;;9.82;8.27;;;33.00;93.60;;;;;;4875179;29;20486;-86
2021/03/01 00:02:40;;;;;;;10.48;8.85;;;32.60;93.00;;;;;;4874844;29;20387;-86
2021/03/01 00:05:09;;;;;;;8.82;7.82;;;32.90;93.80;;;;;;4870175;29;20411;-86
2021/03/01 00:07:37;;;;;;;10.23;9.10;;;32.70;91.60;;;;;;4873704;29;20409;-89
2021/03/01 00:10:05;;;;;;;9.45;8.55;;;32.50;92.00;;;;;;4866265;29;20399;-85
2021/03/01 00:12:32;;;;;;;12.45;9.13;;;32.30;91.60;;;;;;4875314;29;20614;-87
2021/03/01 00:14:59;;;;;;;11.30;8.65;;;32.30;92.20;;;;;;4878253;29;20425;-90
2021/03/01 00:17:27;;;;;;;12.68;9.18;;;32.40;92.00;;;;;;4876341;29;20411;-88
2021/03/01 00:19:53;;;;;;;9.63;8.63;;;32.10;92.50;;;;;;4874664;29;20429;-88
2021/03/01 00:22:21;;;;;;;9.85;8.75;;;32.30;89.90;;;;;;4878106;29;20404;-88
2021/03/01 00:24:48;;;;;;;10.48;9.10;;;31.80;91.40;;;;;;4860835;29;20462;-88
2021/03/01 00:27:15;;;;;;;9.90;8.90;;;32.00;94.20;;;;;;4875683;29;20743;-88
2021/03/01 00:29:41;;;;;;;10.50;9.50;;;32.20;92.50;;;;;;4873344;29;20411;-89
2021/03/01 00:32:09;;;;;;;9.25;8.25;;;32.90;91.00;;;;;;4873962;29;20482;-87
2021/03/01 00:34:35;;;;;;;10.48;9.25;;;32.80;90.20;;;;;;4860140;29;20455;-87
2021/03/01 00:37:02;;;;;;;9.85;8.82;;;32.90;91.80;;;;;;4874525;29;20526;-89
2021/03/01 00:39:29;;;;;;;9.68;8.68;;;32.60;92.70;;;;;;4876072;29;20399;-87
2021/03/01 00:41:56;;;;;;;10.23;8.82;;;32.80;90.70;;;;;;4876111;29;20400;-87
2021/03/01 00:44:23;;;;;;;9.63;8.63;;;32.70;89.70;;;;;;4874653;29;20465;-88
2021/03/01 00:46:50;;;;;;;10.17;9.20;;;32.60;90.80;;;;;;4876322;29;20383;-89
2021/03/01 00:49:17;;;;;;;9.80;8.63;;;32.80;90.60;;;;;;4874219;29;20612;-90
2021/03/01 00:51:44;;;;;;;10.57;8.63;;;32.70;90.40;;;;;;4874004;29;20933;-88
2021/03/01 00:54:11;;;;;;;10.38;9.30;;;32.50;90.50;;;;;;4875273;29;20387;-87
2021/03/01 00:56:38;;;;;;;10.20;9.10;;;32.80;91.90;;;;;;4873755;29;20421;-87
2021/03/01 00:59:05;;;;;;;9.82;8.82;;;32.80;86.90;;;;;;4875916;29;20447;-89
2021/03/01 01:01:33;;;;;;;9.45;8.48;;;32.80;86.30;;;;;;4872737;29;20418;-88
2021/03/01 01:03:59;;;;;;;11.10;9.13;;;32.50;87.00;;;;;;4874900;29;21025;-90
2021/03/01 01:06:26;;;;;;;11.73;9.00;;;32.40;90.00;;;;;;4869917;29;20446;-87
2021/03/01 01:08:53;;;;;;;10.40;9.10;;;32.30;87.60;;;;;;4873482;29;20465;-86
2021/03/01 01:11:20;;;;;;;13.10;9.95;;;32.60;89.30;;;;;;4862944;29;20442;-88
2021/03/01 01:13:47;;;;;;;9.45;8.43;;;33.00;88.50;;;;;;4873046;29;20403;-87
2021/03/01 01:16:14;;;;;;;10.25;8.90;;;33.00;87.00;;;;;;4874709;29;20423;-88
2021/03/01 01:18:41;;;;;;;9.88;8.93;;;32.90;86.60;;;;;;4876798;29;20391;-89
2021/03/01 01:21:08;;;;;;;10.00;9.00;;;32.70;88.40;;;;;;4878135;29;20425;-87
2021/03/01 01:23:35;;;;;;;10.13;8.50;;;32.10;84.80;;;;;;4878792;29;20394;-88
2021/03/01 01:26:02;;;;;;;11.30;9.20;;;31.40;84.40;;;;;;4878903;29;20925;-88
2021/03/01 01:28:29;;;;;;;12.45;9.48;;;31.10;90.50;;;;;;4880446;29;20840;-89
2021/03/01 01:30:56;;;;;;;9.40;8.45;;;31.00;91.50;;;;;;4872644;29;20424;-84
2021/03/01 01:33:23;;;;;;;10.10;9.10;;;30.80;91.00;;;;;;4879907;29;20430;-88
2021/03/01 01:35:50;;;;;;;8.87;8.00;;;30.60;91.80;;;;;;4877091;29;20435;-91
2021/03/01 01:38:17;;;;;;;9.35;8.45;;;30.50;90.70;;;;;;4878074;29;20422;-85
2021/03/01 01:40:45;;;;;;;9.63;8.20;;;30.50;89.80;;;;;;4878642;29;20379;-87
2021/03/01 01:43:11;;;;;;;10.55;9.40;;;30.60;92.20;;;;;;4878464;29;20463;-88
2021/03/01 01:45:40;;;;;;;11.17;9.30;;;30.70;95.10;;;;;;4888355;29;20938;-87
2021/03/01 01:48:07;;;;;;;11.25;8.30;;;30.70;92.00;;;;;;4875842;29;20411;-87
2021/03/01 01:50:34;;;;;;;9.80;8.80;;;30.80;90.90;;;;;;4872134;29;20411;-86
2021/03/01 01:53:02;;;;;;;10.32;8.68;;;30.70;90.00;;;;;;4893842;29;20425;-87
2021/03/01 01:55:30;;;;;;;11.07;9.20;;;30.60;90.50;;;;;;4876934;29;20522;-87
2021/03/01 01:57:57;;;;;;;10.67;9.13;;;30.40;92.00;;;;;;4878873;29;20395;-86
2021/03/01 02:03:14;;;;;;;10.15;9.15;;;29.80;93.70;;;;;;4860187;29;20391;-89
2021/03/01 02:05:42;;;;;;;11.57;9.07;;;29.80;93.70;;;;;;4859633;29;20445;-91
2021/03/01 02:08:20;;;;;;;10.43;8.52;;;29.90;92.30;;;;;;4878638;29;20506;-88
2021/03/01 02:10:52;;;;;;;9.53;7.97;;;30.00;90.90;;;;;;4877358;29;20398;-89
2021/03/01 02:13:29;;;;;;;10.50;8.20;;;30.00;90.60;;;;;;4878300;29;20395;-89
2021/03/01 02:16:03;;;;;;;9.75;8.75;;;30.10;91.00;;;;;;4877754;29;20602;-89
2021/03/01 02:18:30;;;;;;;11.75;8.57;;;30.10;90.90;;;;;;4878097;29;20383;-89
2021/03/01 02:21:08;;;;;;;11.55;8.90;;;30.00;91.50;;;;;;4873954;29;20401;-90
2021/03/01 02:23:35;;;;;;;10.45;8.98;;;30.00;91.60;;;;;;4877363;29;20410;-89
2021/03/01 02:26:24;;;;;;;12.07;9.10;;;29.90;90.80;;;;;;4878488;29;20396;-90
2021/03/01 02:28:54;;;;;;;11.43;9.63;;;30.00;90.90;;;;;;4878002;29;20514;-88
2021/03/01 02:31:25;;;;;;;10.10;9.05;;;30.00;91.70;;;;;;4877762;29;20395;-86
2021/03/01 02:33:57;;;;;;;10.40;9.18;;;29.90;91.40;;;;;;4877438;29;20438;-89
2021/03/01 02:36:41;;;;;;;10.32;9.23;;;30.10;90.70;;;;;;4876632;29;20544;-91
2021/03/01 02:39:09;;;;;;;10.23;9.02;;;30.10;91.90;;;;;;4882555;29;20560;-88
2021/03/01 02:41:38;;;;;;;9.82;8.50;;;30.10;92.60;;;;;;4879210;29;20399;-90
2021/03/01 02:44:07;;;;;;;8.25;7.45;;;30.20;90.90;;;;;;4879071;29;20417;-89
2021/03/01 02:46:36;;;;;;;10.00;8.67;;;30.20;90.60;;;;;;4870583;29;20489;-89
2021/03/01 02:49:06;;;;;;;10.43;7.68;;;30.30;91.80;;;;;;4871308;29;20428;-88
2021/03/01 02:51:36;;;;;;;9.47;8.43;;;30.40;90.80;;;;;;4876130;29;20395;-90
2021/03/01 02:54:05;;;;;;;9.35;8.13;;;30.40;89.80;;;;;;4871834;29;20419;-87
2021/03/01 02:56:35;;;;;;;10.90;8.07;;;30.40;89.10;;;;;;4873572;29;20450;-89
2021/03/01 02:59:05;;;;;;;11.30;8.07;;;30.50;91.20;;;;;;4876471;29;20478;-85
2021/03/01 03:01:34;;;;;;;8.93;8.00;;;30.50;88.60;;;;;;4881320;29;20479;-89
2021/03/01 03:04:03;;;;;;;9.75;8.50;;;30.60;88.30;;;;;;4875442;29;20439;-87
2021/03/01 03:06:33;;;;;;;10.23;8.35;;;30.60;91.70;;;;;;4875126;29;20399;-89
2021/03/01 03:09:00;;;;;;;11.13;8.60;;;30.70;91.20;;;;;;4859145;29;20407;-90
2021/03/01 03:11:30;;;;;;;8.98;7.97;;;30.70;89.10;;;;;;4879705;29;20399;-86
2021/03/01 03:13:58;;;;;;;9.23;7.80;;;30.60;88.00;;;;;;4875933;29;20851;-87
2021/03/01 03:16:27;;;;;;;8.75;7.93;;;30.80;88.60;;;;;;4859606;29;20823;-87
2021/03/01 03:18:56;;;;;;;9.82;8.40;;;31.00;89.70;;;;;;4873507;29;20921;-86
2021/03/01 03:21:24;;;;;;;8.88;7.97;;;31.10;90.00;;;;;;4873208;29;20403;-86
2021/03/01 03:23:53;;;;;;;10.35;8.07;;;31.10;88.00;;;;;;4876734;29;20397;-87
2021/03/01 03:26:21;;;;;;;6.55;5.80;;;31.10;87.90;;;;;;4876691;29;20391;-85
2021/03/01 03:28:48;;;;;;;7.32;6.25;;;31.20;74.90;;;;;;4876982;29;20478;-88
2021/03/01 03:31:15;;;;;;;7.22;6.50;;;31.10;78.20;;;;;;4880514;29;20425;-87
2021/03/01 03:33:43;;;;;;;7.97;7.10;;;31.10;79.50;;;;;;4885778;29;20415;-87
2021/03/01 03:36:12;;;;;;;9.55;7.50;;;31.20;81.40;;;;;;4878546;29;20411;-84
2021/03/01 03:38:55;;;;;;;9.35;7.38;;;31.30;84.80;;;;;;4877622;29;20471;-86
2021/03/01 03:41:23;;;;;;;9.82;7.45;;;31.30;81.10;;;;;;4858003;29;20773;-86
2021/03/01 03:43:52;;;;;;;10.15;7.28;;;31.30;80.90;;;;;;4860540;29;20400;-87
2021/03/01 03:46:19;;;;;;;12.17;7.90;;;31.40;84.70;;;;;;4862744;29;20387;-83
2021/03/01 03:48:50;;;;;;;10.30;7.55;;;31.40;86.60;;;;;;4876064;29;20380;-85
2021/03/01 03:51:20;;;;;;;11.60;8.00;;;31.40;86.90;;;;;;4875960;29;20394;-85
2021/03/01 03:53:54;;;;;;;9.53;7.20;;;31.40;88.20;;;;;;4874375;29;20820;-85
2021/03/01 03:56:27;;;;;;;9.95;7.38;;;31.40;84.30;;;;;;4875870;29;20427;-86
2021/03/01 03:59:07;;;;;;;8.80;7.90;;;31.10;86.50;;;;;;4875786;29;20391;-85
2021/03/01 04:01:36;;;;;;;9.57;7.82;;;30.90;87.80;;;;;;4874764;29;20502;-86
2021/03/01 04:04:07;;;;;;;8.07;7.20;;;30.70;89.90;;;;;;4874917;29;20498;-85
2021/03/01 04:06:37;;;;;;;10.82;6.75;;;30.60;88.70;;;;;;4874674;29;20910;-85
2021/03/01 04:09:08;;;;;;;10.43;6.90;;;30.30;90.50;;;;;;4873619;29;20403;-86
2021/03/01 04:11:37;;;;;;;9.02;6.53;;;30.10;91.90;;;;;;4874199;29;20490;-85
2021/03/01 04:14:06;;;;;;;9.75;6.35;;;30.00;93.10;;;;;;4875107;29;20446;-85
2021/03/01 04:16:34;;;;;;;9.10;6.53;;;30.00;93.10;;;;;;4875296;29;21155;-85
2021/03/01 04:19:05;;;;;;;9.52;6.00;;;29.90;93.80;;;;;;4875191;29;20440;-85
2021/03/01 04:21:34;;;;;;;9.73;6.13;;;29.80;93.10;;;;;;4874778;29;20414;-86
2021/03/01 04:24:04;;;;;;;8.80;6.18;;;29.80;94.10;;;;;;4875508;29;20391;-86
2021/03/01 04:26:34;;;;;;;11.63;6.18;;;30.00;95.00;;;;;;4860656;29;20415;-86
2021/03/01 04:29:03;;;;;;;9.25;5.60;;;30.20;94.10;;;;;;4883402;29;20474;-85
2021/03/01 04:31:31;;;;;;;8.55;5.65;;;30.30;94.60;;;;;;4875738;29;20883;-86
2021/03/01 04:33:59;;;;;;;9.25;5.85;;;30.20;93.90;;;;;;4886175;29;20417;-85
2021/03/01 04:36:27;;;;;;;8.23;5.40;;;30.20;93.80;;;;;;4885084;29;20490;-86
2021/03/01 04:38:54;;;;;;;7.80;5.35;;;30.20;94.50;;;;;;4894133;29;20385;-85
2021/03/01 04:41:22;;;;;;;7.78;5.78;;;30.30;94.00;;;;;;4876001;29;20917;-85
2021/03/01 04:43:51;;;;;;;6.65;5.55;;;30.30;94.10;;;;;;4889623;29;20861;-86
2021/03/01 04:46:18;;;;;;;9.95;5.88;;;30.30;93.90;;;;;;4896514;29;20416;-86
2021/03/01 04:48:48;;;;;;;11.38;5.78;;;30.30;94.90;;;;;;4892935;29;20972;-86
2021/03/01 04:51:15;;;;;;;10.15;5.55;;;30.40;95.20;;;;;;4894594;29;20488;-86
2021/03/01 04:53:42;;;;;;;9.80;5.72;;;30.30;95.80;;;;;;4888777;29;20402;-86
2021/03/01 04:56:09;;;;;;;7.68;5.40;;;30.30;95.90;;;;;;4880315;29;20430;-85
2021/03/01 04:58:41;;;;;;;9.52;5.53;;;30.30;94.90;;;;;;4893959;29;20396;-84
2021/03/01 05:01:08;;;;;;;8.68;5.70;;;30.10;95.30;;;;;;4888430;29;20415;-85
2021/03/01 05:03:38;;;;;;;9.73;5.13;;;30.00;95.70;;;;;;4880416;29;20466;-85
2021/03/01 05:06:05;;;;;;;8.23;5.47;;;30.00;97.10;;;;;;4876040;29;20418;-85
2021/03/01 05:08:34;;;;;;;11.73;5.70;;;30.10;97.50;;;;;;4879475;29;20795;-86
2021/03/01 05:11:06;;;;;;;7.47;5.45;;;30.20;98.40;;;;;;4878977;29;20398;-86
2021/03/01 05:13:34;;;;;;;11.05;5.90;;;30.30;98.20;;;;;;4882327;29;20466;-87
2021/03/01 05:16:02;;;;;;;10.23;5.95;;;30.30;98.20;;;;;;4883710;29;20478;-89
2021/03/01 05:18:31;;;;;;;10.68;5.93;;;30.40;98.50;;;;;;4886702;29;20387;-87
2021/03/01 05:20:58;;;;;;;9.13;5.63;;;30.20;98.70;;;;;;4887964;29;20414;-90
2021/03/01 05:23:25;;;;;;;10.63;6.07;;;30.20;99.20;;;;;;4889488;29;20382;-89
2021/03/01 05:25:52;;;;;;;10.00;5.90;;;30.20;98.30;;;;;;4886453;29;20403;-86
2021/03/01 05:28:19;;;;;;;10.57;6.38;;;30.30;98.10;;;;;;4879591;29;20394;-87
2021/03/01 05:30:46;;;;;;;8.13;5.82;;;30.30;98.10;;;;;;4878569;29;20892;-88
2021/03/01 05:33:13;;;;;;;8.27;5.70;;;30.30;97.30;;;;;;4875893;29;20865;-87
2021/03/01 05:35:40;;;;;;;10.53;6.20;;;30.40;97.60;;;;;;4865599;29;20422;-87
2021/03/01 05:38:07;;;;;;;10.07;6.03;;;30.40;96.90;;;;;;4878085;29;20462;-87
2021/03/01 05:40:34;;;;;;;9.40;5.90;;;30.30;97.00;;;;;;4875727;29;20406;-86
2021/03/01 05:43:02;;;;;;;10.70;6.32;;;30.20;97.60;;;;;;4878170;29;20398;-87
2021/03/01 05:45:29;;;;;;;10.37;7.00;;;30.20;97.70;;;;;;4878059;29;20421;-87
2021/03/01 05:47:56;;;;;;;10.63;6.00;;;30.20;98.50;;;;;;4878663;29;20834;-85
2021/03/01 05:50:23;;;;;;;9.70;6.30;;;30.10;98.50;;;;;;4878891;29;20741;-85
2021/03/01 05:52:58;;;;;;;10.13;6.40;;;30.00;99.20;;;;;;4878443;29;20391;-86
2021/03/01 05:55:26;;;;;;;9.90;6.07;;;30.00;99.30;;;;;;4878580;29;20482;-86
2021/03/01 05:57:56;;;;;;;10.13;6.68;;;30.00;99.20;;;;;;4876735;29;20434;-86
2021/03/01 06:00:23;;;;;;;10.70;6.30;;;30.10;97.50;;;;;;4877976;29;20406;-86
2021/03/01 06:02:52;;;;;;;10.23;6.47;;;30.20;98.60;;;;;;4877753;29;20387;-87
2021/03/01 06:05:19;;;;;;;9.65;6.85;;;30.20;97.50;;;;;;4863698;29;20483;-86
2021/03/01 06:07:47;;;;;;;9.15;6.65;;;30.20;96.60;;;;;;4860365;29;20397;-85
2021/03/01 06:10:14;;;;;;;11.00;6.60;;;30.10;97.00;;;;;;4877205;29;20526;-86
2021/03/01 06:12:41;;;;;;;7.38;6.35;;;30.10;96.10;;;;;;4875777;29;20414;-87
2021/03/01 06:15:10;;;;;;;9.80;6.60;;;30.10;95.70;;;;;;4875649;29;20748;-87
2021/03/01 06:17:37;;;;;;;8.50;6.50;;;30.10;96.00;;;;;;4877237;29;20443;-86
2021/03/01 06:20:05;;;;;;;10.32;6.68;;;30.10;95.90;;;;;;4877974;29;20466;-89
2021/03/01 06:22:45;;;;;;;9.53;7.20;;;29.90;96.80;;;;;;4877990;29;20387;-86
2021/03/01 06:25:14;;;;;;;9.03;6.90;;;29.80;97.70;;;;;;4877272;29;20510;-85
2021/03/01 06:27:57;;;;;;;11.60;6.72;;;29.70;98.30;;;;;;4876579;29;20829;-88
2021/03/01 06:30:33;;;;;;;9.02;6.50;;;29.70;98.60;;;;;;4874872;29;20537;-88
2021/03/01 06:33:12;;;;;;;11.73;6.47;;;29.70;99.10;;;;;;4872600;29;20495;-86
2021/03/01 06:35:50;;;;;;;10.30;6.63;;;29.70;99.00;;;;;;4872209;29;20418;-85
2021/03/01 06:38:26;;;;;;;9.82;6.93;;;29.70;99.00;;;;;;4864325;29;20877;-86
2021/03/01 06:41:18;;;;;;;10.25;7.32;;;29.70;99.80;;;;;;4868291;29;20391;-87
2021/03/01 06:43:57;;;;;;;8.85;7.28;;;29.60;99.90;;;;;;4877726;29;20478;-90
2021/03/01 06:46:27;;;;;;;11.32;8.05;;;29.60;99.90;;;;;;4877323;29;20465;-87
2021/03/01 06:48:54;;;;;;;9.90;7.35;;;29.60;99.90;;;;;;4876500;29;20395;-86
2021/03/01 06:51:22;;;;;;;8.67;7.00;;;29.60;99.90;;;;;;4877015;29;20454;-87
2021/03/01 06:54:00;;;;;;;10.60;7.65;;;29.60;99.50;;;;;;4868503;29;20447;-87
2021/03/01 06:56:43;;;;;;;12.18;7.72;;;29.60;99.90;;;;;;4876733;29;20426;-89
2021/03/01 06:59:17;;;;;;;8.52;7.38;;;29.60;99.90;;;;;;4876061;29;20387;-88
2021/03/01 07:01:53;;;;;;;8.07;7.20;;;29.50;99.90;;;;;;4873100;29;20939;-87
2021/03/01 07:04:28;;;;;;;9.40;7.88;;;29.50;99.90;;;;;;4875762;29;20467;-86
2021/03/01 07:06:56;;;;;;;11.73;7.50;;;29.50;99.90;;;;;;4871637;29;20418;-86
2021/03/01 07:09:28;;;;;;;11.93;8.07;;;29.30;99.90;;;;;;4876858;29;20485;-88
2021/03/01 07:11:56;;;;;;;10.25;7.75;;;29.20;99.90;;;;;;4863317;29;20423;-88
2021/03/01 07:14:26;;;;;;;9.38;7.60;;;29.20;99.90;;;;;;4874877;29;20554;-88
2021/03/01 07:16:59;;;;;;;10.20;7.85;;;29.10;99.90;;;;;;4874069;29;20411;-88
2021/03/01 07:19:31;;;;;;;9.35;7.95;;;29.10;99.90;;;;;;4874562;29;20421;-87
2021/03/01 07:22:01;;;;;;;13.45;8.00;;;29.10;99.90;;;;;;4875625;29;20426;-87
2021/03/01 07:24:30;;;;;;;10.90;7.80;;;29.00;99.90;;;;;;4871724;29;20418;-91
2021/03/01 07:26:59;;;;;;;10.02;8.18;;;29.00;99.90;;;;;;4873223;29;20429;-87
2021/03/01 07:29:31;;;;;;;13.43;8.13;;;29.00;99.90;;;;;;4876335;29;20409;-89
2021/03/01 07:32:02;;;;;;;11.85;8.05;;;29.00;99.90;;;;;;4874601;29;20391;-88
2021/03/01 07:34:30;;;;;;;10.38;7.85;;;28.90;99.90;;;;;;4874255;29;20515;-87
2021/03/01 07:37:00;;;;;;;9.77;8.05;;;28.90;99.90;;;;;;4875021;29;20558;-87
2021/03/01 07:39:28;;;;;;;13.32;8.73;;;28.80;99.90;;;;;;4872667;29;20530;-87
2021/03/01 07:41:56;;;;;;;10.80;8.32;;;28.70;99.90;;;;;;4874555;29;20416;-86
2021/03/01 07:44:29;;;;;;;11.68;8.68;;;28.70;99.90;;;;;;4880271;29;20804;-87
2021/03/01 07:47:00;;;;;;;9.20;8.30;;;28.60;99.90;;;;;;4874024;29;20556;-88
2021/03/01 07:49:48;;;;;;;10.48;8.10;;;28.60;99.90;;;;;;4875018;29;20454;-87
2021/03/01 07:52:21;;;;;;;11.25;8.45;;;28.60;99.90;;;;;;4874195;29;20418;-88
2021/03/01 07:54:55;;;;;;;10.80;8.68;;;28.50;99.90;;;;;;4877083;29;20479;-86
2021/03/01 07:57:25;;;;;;;12.83;8.70;;;28.50;99.90;;;;;;4878565;29;20410;-87
2021/03/01 07:59:51;;;;;;;11.98;8.60;;;28.40;99.90;;;;;;4879197;29;20800;-86
2021/03/01 08:02:25;;;;;;;23.33;11.77;;;28.20;99.90;;;;;;4864104;29;20405;-86
2021/03/01 08:04:54;;;;;;;13.50;8.90;;;28.20;99.90;;;;;;4893633;29;20391;-87
2021/03/01 08:07:43;;;;;;;13.95;9.63;;;28.10;99.90;;;;;;4875139;29;20824;-87
2021/03/01 08:10:17;;;;;;;12.60;9.50;;;28.00;99.90;;;;;;4879654;29;20884;-87
2021/03/01 08:12:54;;;;;;;13.05;9.57;;;28.00;99.90;;;;;;4882878;29;20422;-89
2021/03/01 08:15:24;;;;;;;14.85;9.75;;;27.90;99.90;;;;;;4884643;29;20415;-90
2021/03/01 08:17:51;;;;;;;12.38;10.43;;;27.90;99.90;;;;;;4878392;29;20390;-88
2021/03/01 08:20:24;;;;;;;11.07;9.93;;;27.90;99.90;;;;;;4884809;29;20408;-87
2021/03/01 08:23:07;;;;;;;10.75;9.52;;;27.70;99.90;;;;;;4880728;29;20747;-88
2021/03/01 08:25:50;;;;;;;12.37;10.30;;;27.60;99.90;;;;;;4877733;29;20403;-88
2021/03/01 08:28:17;;;;;;;12.38;10.15;;;27.50;99.90;;;;;;4893832;29;20394;-88
2021/03/01 08:30:55;;;;;;;13.23;10.02;;;27.50;99.90;;;;;;4894406;29;20399;-85
2021/03/01 08:33:29;;;;;;;15.55;10.65;;;27.50;99.90;;;;;;4895238;29;20878;-85
2021/03/01 08:36:02;;;;;;;14.70;10.35;;;27.40;99.90;;;;;;4896720;29;20428;-85
2021/03/01 08:38:47;;;;;;;14.65;10.48;;;27.30;99.90;;;;;;4897935;29;20866;-87
2021/03/01 08:41:16;;;;;;;14.13;10.53;;;27.30;99.90;;;;;;4898337;29;20405;-86
2021/03/01 08:43:52;;;;;;;13.38;10.73;;;27.20;99.90;;;;;;4898190;29;20408;-86
2021/03/01 08:46:21;;;;;;;13.07;10.38;;;27.10;99.90;;;;;;4898625;29;20389;-84
2021/03/01 08:48:51;;;;;;;11.48;10.18;;;27.00;99.90;;;;;;4892067;29;20387;-89
2021/03/01 08:51:19;;;;;;;12.20;10.50;;;26.90;99.90;;;;;;4877301;29;20410;-88
2021/03/01 08:53:48;;;;;;;11.85;10.65;;;26.80;99.90;;;;;;4872528;29;20404;-89
2021/03/01 08:56:26;;;;;;;16.35;11.00;;;26.80;99.90;;;;;;4857110;29;20443;-87
2021/03/01 08:58:55;;;;;;;12.57;10.30;;;26.70;99.90;;;;;;4874180;29;20875;-89
2021/03/01 09:01:22;;;;;;;12.35;11.15;;;26.60;99.90;;;;;;4874458;29;20505;-88
2021/03/01 09:03:49;;;;;;;15.07;11.25;;;26.50;99.90;;;;;;4872113;29;20391;-87
2021/03/01 09:06:23;;;;;;;15.57;11.65;;;26.40;99.90;;;;;;4875534;29;21007;-89
2021/03/01 09:08:54;;;;;;;13.55;11.25;;;26.40;99.90;;;;;;4872677;29;20751;-86
2021/03/01 09:11:28;;;;;;;13.98;11.80;;;26.30;99.90;;;;;;4871822;29;20403;-87
2021/03/01 09:14:03;;;;;;;13.43;11.10;;;26.30;99.90;;;;;;4871820;29;20422;-88
2021/03/01 09:16:33;;;;;;;13.55;11.38;;;26.30;99.90;;;;;;4872405;29;20439;-90
2021/03/01 09:19:09;;;;;;;13.63;11.35;;;26.20;99.90;;;;;;4862126;29;20501;-88
2021/03/01 09:21:40;;;;;;;16.42;12.02;;;26.20;99.90;;;;;;4871362;29;20419;-89
2021/03/01 09:24:08;;;;;;;17.88;11.82;;;26.10;99.90;;;;;;4886991;29;20399;-87
2021/03/01 09:26:40;;;;;;;13.80;11.75;;;26.10;99.90;;;;;;4873296;29;20402;-88
2021/03/01 09:29:13;;;;;;;14.27;12.75;;;26.00;99.90;;;;;;4876191;29;20450;-87
2021/03/01 09:31:42;;;;;;;14.35;11.60;;;26.00;99.90;;;;;;4872413;29;20450;-87
2021/03/01 09:34:11;;;;;;;16.77;12.32;;;25.90;99.90;;;;;;4872082;29;20429;-86
2021/03/01 09:36:40;;;;;;;15.68;12.25;;;25.80;99.90;;;;;;4870538;29;20440;-87
2021/03/01 09:39:09;;;;;;;14.30;12.48;;;25.80;99.90;;;;;;4871232;29;20417;-89
2021/03/01 09:41:39;;;;;;;16.17;11.77;;;25.80;99.90;;;;;;4875604;29;20411;-88
2021/03/01 09:44:10;;;;;;;15.40;12.20;;;25.80;99.90;;;;;;4874592;29;20485;-87
2021/03/01 09:46:38;;;;;;;15.53;12.87;;;25.80;99.90;;;;;;4875039;29;20402;-87
2021/03/01 09:49:07;;;;;;;13.45;9.52;;;25.80;99.90;;;;;;4875203;29;20501;-88
2021/03/01 09:51:35;;;;;;;10.43;8.82;;;25.70;99.90;;;;;;4875646;29;20882;-87
2021/03/01 09:54:06;;;;;;;13.25;9.20;;;25.60;99.90;;;;;;4875465;29;20466;-89
2021/03/01 09:56:44;;;;;;;11.93;8.60;;;25.60;99.90;;;;;;4875248;29;20435;-89
2021/03/01 09:59:29;;;;;;;11.35;6.47;;;25.40;99.20;;;;;;4876185;29;20807;-87
2021/03/01 10:02:09;;;;;;;10.00;6.45;;;25.40;97.20;;;;;;4857755;29;20405;-88
2021/03/01 10:04:36;;;;;;;7.63;4.85;;;25.30;96.20;;;;;;4875319;29;20486;-88
2021/03/01 10:07:27;;;;;;;6.80;3.80;;;25.20;94.60;;;;;;4875383;29;20430;-91
2021/03/01 10:10:25;;;;;;;6.25;3.40;;;25.20;92.20;;;;;;4876787;29;20398;-90
2021/03/01 10:12:55;;;;;;;7.72;3.45;;;25.10;91.00;;;;;;4879084;29;20439;-90
2021/03/01 10:15:22;;;;;;;6.70;2.88;;;25.10;89.20;;;;;;4866116;29;20441;-87
2021/03/01 10:18:08;;;;;;;7.33;2.73;;;25.00;85.70;;;;;;4877270;29;20880;-86
2021/03/01 10:20:47;;;;;;;6.38;2.60;;;25.00;82.50;;;;;;4874093;29;20752;-85
2021/03/01 10:23:33;;;;;;;6.70;2.30;;;25.00;81.00;;;;;;4875679;29;20474;-86
2021/03/01 10:26:18;;;;;;;8.70;2.13;;;24.90;78.80;;;;;;4874310;29;20411;-88
2021/03/01 10:28:58;;;;;;;7.70;1.98;;;24.90;77.40;;;;;;4857626;29;20912;-90
2021/03/01 10:31:37;;;;;;;7.53;1.92;;;24.90;75.70;;;;;;4865262;29;20387;-87
2021/03/01 10:34:15;;;;;;;4.63;1.50;;;24.80;74.40;;;;;;4874388;29;20415;-85
2021/03/01 10:36:48;;;;;;;6.93;1.50;;;24.70;74.80;;;;;;4874522;29;20415;-87
2021/03/01 10:39:21;;;;;;;4.40;1.58;;;24.70;72.80;;;;;;4860355;29;20385;-90
2021/03/01 10:41:50;;;;;;;4.82;1.88;;;24.60;72.50;;;;;;4862120;29;20408;-92
2021/03/01 10:44:26;;;;;;;4.53;1.38;;;24.70;72.50;;;;;;4887201;29;20450;-92
2021/03/01 10:46:53;;;;;;;6.45;1.58;;;24.60;71.30;;;;;;4877232;29;20430;-89
2021/03/01 10:49:23;;;;;;;4.32;1.48;;;24.60;69.60;;;;;;4869738;29;20564;-88
2021/03/01 10:51:51;;;;;;;6.37;1.50;;;24.60;69.40;;;;;;4874609;29;20414;-88
2021/03/01 10:54:19;;;;;;;5.93;1.30;;;24.60;68.00;;;;;;4885249;29;20399;-86
2021/03/01 10:56:46;;;;;;;5.83;1.40;;;24.60;67.70;;;;;;4876642;29;20454;-84
2021/03/01 10:59:13;;;;;;;7.13;1.30;;;24.60;67.00;;;;;;4877125;29;20391;-85
2021/03/01 11:01:42;;;;;;;8.07;1.20;;;24.50;67.20;;;;;;4873888;29;20467;-85
2021/03/01 11:04:11;;;;;;;3.92;0.90;;;24.50;66.10;;;;;;4874930;29;20399;-85
2021/03/01 11:06:38;;;;;;;5.53;1.10;;;24.40;65.50;;;;;;4877261;29;20399;-85
2021/03/01 11:09:08;;;;;;;3.88;1.13;;;24.40;64.40;;;;;;4877463;29;20391;-85
2021/03/01 11:11:37;;;;;;;8.13;0.90;;;24.40;63.60;;;;;;4880492;29;20398;-85
2021/03/01 11:14:05;;;;;;;5.65;1.08;;;24.40;63.30;;;;;;4879141;29;20768;-86
2021/03/01 11:16:32;;;;;;;6.95;1.30;;;24.40;61.60;;;;;;4876791;29;20427;-85
2021/03/01 11:18:59;;;;;;;7.05;1.10;;;24.40;60.90;;;;;;4876969;29;20399;-85
2021/03/01 11:21:27;;;;;;;8.80;1.10;;;24.40;60.50;;;;;;4876172;29;20388;-85
2021/03/01 11:23:54;;;;;;;4.05;0.82;;;24.30;60.60;;;;;;4873993;29;20955;-85
2021/03/01 11:26:21;;;;;;;7.47;0.95;;;24.30;62.10;;;;;;4871366;29;20425;-85
2021/03/01 11:28:48;;;;;;;8.85;1.00;;;24.20;61.20;;;;;;4875567;29;20426;-85
2021/03/01 11:31:15;;;;;;;8.45;0.80;;;24.20;60.80;;;;;;4875213;29;20411;-85
2021/03/01 11:33:42;;;;;;;5.38;1.17;;;24.10;60.40;;;;;;4879025;29;20772;-85
2021/03/01 11:36:10;;;;;;;8.07;0.95;;;24.10;60.80;;;;;;4877769;29;20479;-85
2021/03/01 11:38:38;;;;;;;4.03;0.85;;;24.00;60.70;;;;;;4876256;29;20877;-86
2021/03/01 11:41:05;;;;;;;4.60;0.70;;;23.90;60.40;;;;;;4878836;29;20417;-85
2021/03/01 11:43:34;;;;;;;7.13;1.10;;;23.90;60.60;;;;;;4895770;29;20381;-85
2021/03/01 11:46:02;;;;;;;4.53;1.00;;;23.80;61.70;;;;;;4893578;29;20405;-85
2021/03/01 11:48:29;;;;;;;6.43;1.02;;;23.80;61.00;;;;;;4887769;29;20398;-84
2021/03/01 11:50:56;;;;;;;4.38;1.20;;;23.70;61.70;;;;;;4888854;29;20440;-85
2021/03/01 11:53:23;;;;;;;3.72;0.80;;;23.80;61.60;;;;;;4876540;29;20403;-85
2021/03/01 11:55:50;;;;;;;3.15;1.23;;;23.70;60.40;;;;;;4883593;29;20419;-85
2021/03/01 11:58:17;;;;;;;8.88;2.33;;;23.70;60.20;;;;;;4890008;29;20410;-85
2021/03/01 12:00:44;;;;;;;7.78;3.40;;;23.90;76.60;;;;;;4890143;29;20960;-84
2021/03/01 12:03:11;;;;;;;11.70;4.38;;;24.10;79.60;;;;;;4884599;29;20417;-85
2021/03/01 12:05:41;;;;;;;14.68;4.90;;;24.00;86.10;;;;;;4889039;29;20742;-85
2021/03/01 12:08:09;;;;;;;16.35;5.00;;;23.90;90.60;;;;;;4885733;29;20460;-85
2021/03/01 12:10:37;;;;;;;16.92;5.65;;;23.70;92.90;;;;;;4874874;29;20419;-84
2021/03/01 12:13:05;;;;;;;20.53;5.97;;;23.40;94.50;;;;;;4893700;29;20506;-84
2021/03/01 12:15:32;;;;;;;20.42;5.68;;;23.30;95.70;;;;;;4882278;29;20414;-85
2021/03/01 12:17:59;;;;;;;27.05;6.70;;;23.10;96.60;;;;;;4871876;29;20407;-84
2021/03/01 12:20:27;;;;;;;27.10;7.20;;;23.00;98.30;;;;;;4882465;29;20408;-85
2021/03/01 12:22:54;;;;;;;26.27;6.72;;;22.80;99.70;;;;;;4878310;29;20406;-84
2021/03/01 12:25:22;;;;;;;29.50;6.63;;;22.60;99.90;;;;;;4890989;29;20405;-85
2021/03/01 12:27:49;;;;;;;29.48;7.50;;;22.40;99.90;;;;;;4892515;29;20428;-84
2021/03/01 12:30:17;;;;;;;25.88;6.93;;;22.30;99.90;;;;;;4878176;29;20410;-83
2021/03/01 12:32:43;;;;;;;34.28;7.57;;;22.10;99.90;;;;;;4875478;29;20435;-85
2021/03/01 12:35:11;;;;;;;28.27;7.22;;;21.90;99.90;;;;;;4877493;29;20430;-83
2021/03/01 12:37:38;;;;;;;30.42;7.38;;;21.80;99.90;;;;;;4873739;29;20484;-83
2021/03/01 12:40:06;;;;;;;33.95;7.65;;;21.80;99.90;;;;;;4877230;29;20403;-84
2021/03/01 12:42:33;;;;;;;35.97;8.10;;;21.70;99.90;;;;;;4873783;29;20747;-84
2021/03/01 12:45:01;;;;;;;33.03;7.47;;;21.60;99.90;;;;;;4872935;29;20403;-85
2021/03/01 12:47:28;;;;;;;28.25;8.18;;;21.50;99.90;;;;;;4876834;29;20803;-83
2021/03/01 12:49:55;;;;;;;30.58;7.53;;;21.40;99.90;;;;;;4885396;29;20410;-85
2021/03/01 12:52:22;;;;;;;34.05;7.82;;;21.30;99.90;;;;;;4873744;29;20902;-84
2021/03/01 12:54:49;;;;;;;31.65;7.82;;;21.30;99.90;;;;;;4875079;29;20925;-83
2021/03/01 12:57:16;;;;;;;33.65;7.60;;;21.20;99.90;;;;;;4871377;29;20422;-85